Volant, Pennsylvania
Current Conditions -  °F | °C
As of 6:51 PM on Friday 19 Dec 2014 (Local Time) from KYNG Reporting Station
Overcast Overcast  
Wind Chill: 21°   Ceiling: 2400
Heat Index: 29°   Visibility: 10mi
Dew Point: 21°   Wind: 8mph
Humidity: 72%   Direction: 310°NW
Pressure: 30.25"   Gusts: NA
Location:  41.11°N, 80.26°W
Report Text: KYNG 192351Z 31007KT 10SM OVC024 M02/M06 A3025 RMK AO2 SLP258 T10171061 11006 21022 51018
Loading
Personal Weather Stations






























Interactive Weather Map New forecast layout! Learn more

10-Day Weather Forecast

Advertisements
Track Severe Weather on mobile